sensor_id;sensor_type;location;lat;lon;timestamp;temperature;humidity
49042;DHT22;34859;51.608;11.462;2023-07-20T00:00:22;15.80;99.90
49042;DHT22;34859;51.608;11.462;2023-07-20T00:02:51;15.80;99.90
49042;DHT22;34859;51.608;11.462;2023-07-20T00:05:17;15.80;99.90
49042;DHT22;34859;51.608;11.462;2023-07-20T00:07:47;15.80;99.90
49042;DHT22;34859;51.608;11.462;2023-07-20T00:10:13;15.80;99.90
49042;DHT22;34859;51.608;11.462;2023-07-20T00:12:38;15.80;99.90
49042;DHT22;34859;51.608;11.462;2023-07-20T00:15:04;15.90;99.90
49042;DHT22;34859;51.608;11.462;2023-07-20T00:17:31;15.90;99.90
49042;DHT22;34859;51.608;11.462;2023-07-20T00:19:57;15.90;99.90
49042;DHT22;34859;51.608;11.462;2023-07-20T00:22:22;15.90;99.90
49042;DHT22;34859;51.608;11.462;2023-07-20T00:24:48;15.80;99.90
49042;DHT22;34859;51.608;11.462;2023-07-20T00:27:14;15.80;99.90
49042;DHT22;34859;51.608;11.462;2023-07-20T00:29:40;15.80;99.90
49042;DHT22;34859;51.608;11.462;2023-07-20T00:32:07;15.90;99.90
49042;DHT22;34859;51.608;11.462;2023-07-20T00:34:33;15.90;99.90
49042;DHT22;34859;51.608;11.462;2023-07-20T00:36:58;15.70;99.90
49042;DHT22;34859;51.608;11.462;2023-07-20T00:39:24;15.70;99.90
49042;DHT22;34859;51.608;11.462;2023-07-20T00:41:51;15.70;99.90
49042;DHT22;34859;51.608;11.462;2023-07-20T00:44:17;15.70;99.90
49042;DHT22;34859;51.608;11.462;2023-07-20T00:46:43;15.70;99.90
49042;DHT22;34859;51.608;11.462;2023-07-20T00:49:09;15.70;99.90
49042;DHT22;34859;51.608;11.462;2023-07-20T00:51:35;15.70;99.90
49042;DHT22;34859;51.608;11.462;2023-07-20T00:54:01;15.70;99.90
49042;DHT22;34859;51.608;11.462;2023-07-20T00:56:31;15.80;99.90
49042;DHT22;34859;51.608;11.462;2023-07-20T00:58:57;15.70;99.90
49042;DHT22;34859;51.608;11.462;2023-07-20T01:01:23;15.70;99.90
49042;DHT22;34859;51.608;11.462;2023-07-20T01:03:48;15.60;99.90
49042;DHT22;34859;51.608;11.462;2023-07-20T01:06:15;15.60;99.90
49042;DHT22;34859;51.608;11.462;2023-07-20T01:09:02;15.60;99.90
49042;DHT22;34859;51.608;11.462;2023-07-20T01:14:18;15.50;99.90
49042;DHT22;34859;51.608;11.462;2023-07-20T01:16:45;15.50;99.90
49042;DHT22;34859;51.608;11.462;2023-07-20T01:19:12;15.50;99.90
49042;DHT22;34859;51.608;11.462;2023-07-20T01:21:40;15.60;99.90
49042;DHT22;34859;51.608;11.462;2023-07-20T01:24:15;15.60;99.90
49042;DHT22;34859;51.608;11.462;2023-07-20T01:32:31;15.70;99.90
49042;DHT22;34859;51.608;11.462;2023-07-20T01:34:58;15.70;99.90
49042;DHT22;34859;51.608;11.462;2023-07-20T01:37:25;15.70;99.90
49042;DHT22;34859;51.608;11.462;2023-07-20T01:39:54;15.70;99.90
49042;DHT22;34859;51.608;11.462;2023-07-20T01:42:32;15.70;99.90
49042;DHT22;34859;51.608;11.462;2023-07-20T01:44:58;15.70;99.90
49042;DHT22;34859;51.608;11.462;2023-07-20T01:47:24;15.70;99.90
49042;DHT22;34859;51.608;11.462;2023-07-20T01:49:49;15.70;99.90
49042;DHT22;34859;51.608;11.462;2023-07-20T01:52:17;15.70;99.90
49042;DHT22;34859;51.608;11.462;2023-07-20T01:54:42;15.70;99.90
49042;DHT22;34859;51.608;11.462;2023-07-20T01:57:08;15.70;99.90
49042;DHT22;34859;51.608;11.462;2023-07-20T01:59:34;15.70;99.90
49042;DHT22;34859;51.608;11.462;2023-07-20T02:01:59;15.70;99.90
49042;DHT22;34859;51.608;11.462;2023-07-20T02:04:27;15.70;99.90
49042;DHT22;34859;51.608;11.462;2023-07-20T02:06:53;15.60;99.90
49042;DHT22;34859;51.608;11.462;2023-07-20T02:09:19;15.70;99.90
49042;DHT22;34859;51.608;11.462;2023-07-20T02:11:45;15.70;99.90
49042;DHT22;34859;51.608;11.462;2023-07-20T02:14:10;15.70;99.90
49042;DHT22;34859;51.608;11.462;2023-07-20T02:16:37;15.70;99.90
49042;DHT22;34859;51.608;11.462;2023-07-20T02:19:02;15.70;99.90
49042;DHT22;34859;51.608;11.462;2023-07-20T02:21:29;15.70;99.90
49042;DHT22;34859;51.608;11.462;2023-07-20T02:23:55;15.60;99.90
49042;DHT22;34859;51.608;11.462;2023-07-20T02:26:20;15.60;99.90
49042;DHT22;34859;51.608;11.462;2023-07-20T02:28:50;15.60;99.90
49042;DHT22;34859;51.608;11.462;2023-07-20T02:31:17;15.70;99.90
49042;DHT22;34859;51.608;11.462;2023-07-20T02:33:42;15.70;99.90
49042;DHT22;34859;51.608;11.462;2023-07-20T02:36:08;15.60;99.90
49042;DHT22;34859;51.608;11.462;2023-07-20T02:38:33;15.60;99.90
49042;DHT22;34859;51.608;11.462;2023-07-20T02:40:59;15.60;99.90
49042;DHT22;34859;51.608;11.462;2023-07-20T02:43:25;15.60;99.90
49042;DHT22;34859;51.608;11.462;2023-07-20T02:45:50;15.70;99.90
49042;DHT22;34859;51.608;11.462;2023-07-20T02:48:17;15.60;99.90
49042;DHT22;34859;51.608;11.462;2023-07-20T02:50:43;15.60;99.90
49042;DHT22;34859;51.608;11.462;2023-07-20T02:53:09;15.70;99.90
49042;DHT22;34859;51.608;11.462;2023-07-20T02:55:35;15.60;99.90
49042;DHT22;34859;51.608;11.462;2023-07-20T02:58:00;15.60;99.90
49042;DHT22;34859;51.608;11.462;2023-07-20T03:00:29;15.60;99.90
49042;DHT22;34859;51.608;11.462;2023-07-20T03:02:54;15.60;99.90
49042;DHT22;34859;51.608;11.462;2023-07-20T03:05:21;15.60;99.90
49042;DHT22;34859;51.608;11.462;2023-07-20T03:07:48;15.60;99.90
49042;DHT22;34859;51.608;11.462;2023-07-20T03:10:14;15.60;99.90
49042;DHT22;34859;51.608;11.462;2023-07-20T03:12:39;15.50;99.90
49042;DHT22;34859;51.608;11.462;2023-07-20T03:15:07;15.60;99.90
49042;DHT22;34859;51.608;11.462;2023-07-20T03:17:33;15.60;99.90
49042;DHT22;34859;51.608;11.462;2023-07-20T03:19:59;15.60;99.90
49042;DHT22;34859;51.608;11.462;2023-07-20T03:22:27;15.50;99.90
49042;DHT22;34859;51.608;11.462;2023-07-20T03:24:53;15.60;99.90
49042;DHT22;34859;51.608;11.462;2023-07-20T03:27:19;15.60;99.90
49042;DHT22;34859;51.608;11.462;2023-07-20T03:29:44;15.60;99.90
49042;DHT22;34859;51.608;11.462;2023-07-20T03:32:10;15.50;99.90
49042;DHT22;34859;51.608;11.462;2023-07-20T03:34:37;15.50;99.90
49042;DHT22;34859;51.608;11.462;2023-07-20T03:37:02;15.50;99.90
49042;DHT22;34859;51.608;11.462;2023-07-20T03:39:32;15.40;99.90
49042;DHT22;34859;51.608;11.462;2023-07-20T03:41:58;15.50;99.90
49042;DHT22;34859;51.608;11.462;2023-07-20T03:44:24;15.50;99.90
49042;DHT22;34859;51.608;11.462;2023-07-20T03:46:50;15.40;99.90
49042;DHT22;34859;51.608;11.462;2023-07-20T03:49:17;15.50;99.90
49042;DHT22;34859;51.608;11.462;2023-07-20T03:51:43;15.50;99.90
49042;DHT22;34859;51.608;11.462;2023-07-20T03:54:08;15.50;99.90
49042;DHT22;34859;51.608;11.462;2023-07-20T03:56:34;15.40;99.90
49042;DHT22;34859;51.608;11.462;2023-07-20T03:59:01;15.40;99.90
49042;DHT22;34859;51.608;11.462;2023-07-20T04:01:32;15.40;99.90
49042;DHT22;34859;51.608;11.462;2023-07-20T04:04:04;15.50;99.90
49042;DHT22;34859;51.608;11.462;2023-07-20T04:06:30;15.50;99.90
49042;DHT22;34859;51.608;11.462;2023-07-20T04:08:57;15.40;99.90
49042;DHT22;34859;51.608;11.462;2023-07-20T04:11:22;15.50;99.90
49042;DHT22;34859;51.608;11.462;2023-07-20T04:14:08;15.50;99.90
49042;DHT22;34859;51.608;11.462;2023-07-20T04:16:53;15.50;99.90
49042;DHT22;34859;51.608;11.462;2023-07-20T04:19:39;15.40;99.90
49042;DHT22;34859;51.608;11.462;2023-07-20T04:22:25;15.50;99.90
49042;DHT22;34859;51.608;11.462;2023-07-20T04:25:10;15.60;99.90
49042;DHT22;34859;51.608;11.462;2023-07-20T04:27:37;15.60;99.90
49042;DHT22;34859;51.608;11.462;2023-07-20T04:30:02;15.60;99.90
49042;DHT22;34859;51.608;11.462;2023-07-20T04:32:29;15.60;99.90
49042;DHT22;34859;51.608;11.462;2023-07-20T04:34:54;15.60;99.90
49042;DHT22;34859;51.608;11.462;2023-07-20T04:37:20;15.60;99.90
49042;DHT22;34859;51.608;11.462;2023-07-20T04:39:47;15.60;99.90
49042;DHT22;34859;51.608;11.462;2023-07-20T04:42:12;15.60;99.90
49042;DHT22;34859;51.608;11.462;2023-07-20T04:44:38;15.60;99.90
49042;DHT22;34859;51.608;11.462;2023-07-20T04:47:03;15.70;99.90
49042;DHT22;34859;51.608;11.462;2023-07-20T04:49:29;15.60;99.90
49042;DHT22;34859;51.608;11.462;2023-07-20T04:51:55;15.60;99.90
49042;DHT22;34859;51.608;11.462;2023-07-20T04:54:20;15.60;99.90
49042;DHT22;34859;51.608;11.462;2023-07-20T04:56:47;15.60;99.90
49042;DHT22;34859;51.608;11.462;2023-07-20T04:59:12;15.60;99.90
49042;DHT22;34859;51.608;11.462;2023-07-20T05:01:38;15.70;99.90
49042;DHT22;34859;51.608;11.462;2023-07-20T05:04:04;15.70;99.90
49042;DHT22;34859;51.608;11.462;2023-07-20T05:06:29;15.70;99.90
49042;DHT22;34859;51.608;11.462;2023-07-20T05:08:57;15.70;99.90
49042;DHT22;34859;51.608;11.462;2023-07-20T05:11:23;15.80;99.90
49042;DHT22;34859;51.608;11.462;2023-07-20T05:13:48;15.90;99.90
49042;DHT22;34859;51.608;11.462;2023-07-20T05:16:14;15.90;99.90
49042;DHT22;34859;51.608;11.462;2023-07-20T05:18:40;15.90;99.90
49042;DHT22;34859;51.608;11.462;2023-07-20T05:21:07;15.90;99.90
49042;DHT22;34859;51.608;11.462;2023-07-20T05:23:33;15.90;99.90
49042;DHT22;34859;51.608;11.462;2023-07-20T05:25:59;15.90;99.90
49042;DHT22;34859;51.608;11.462;2023-07-20T05:28:27;15.90;99.90
49042;DHT22;34859;51.608;11.462;2023-07-20T05:30:53;16.00;99.90
49042;DHT22;34859;51.608;11.462;2023-07-20T05:33:19;15.90;99.90
49042;DHT22;34859;51.608;11.462;2023-07-20T05:35:47;16.00;99.90
49042;DHT22;34859;51.608;11.462;2023-07-20T05:38:12;16.00;99.90
49042;DHT22;34859;51.608;11.462;2023-07-20T05:40:39;16.10;99.90
49042;DHT22;34859;51.608;11.462;2023-07-20T05:43:07;16.10;99.90
49042;DHT22;34859;51.608;11.462;2023-07-20T05:45:32;16.10;99.90
49042;DHT22;34859;51.608;11.462;2023-07-20T05:47:58;16.10;99.90
49042;DHT22;34859;51.608;11.462;2023-07-20T05:50:24;16.10;99.90
49042;DHT22;34859;51.608;11.462;2023-07-20T05:52:54;16.10;99.90
49042;DHT22;34859;51.608;11.462;2023-07-20T05:55:40;16.10;99.90
49042;DHT22;34859;51.608;11.462;2023-07-20T05:58:07;16.00;99.90
49042;DHT22;34859;51.608;11.462;2023-07-20T06:00:32;16.10;99.90
49042;DHT22;34859;51.608;11.462;2023-07-20T06:02:58;16.10;99.90
49042;DHT22;34859;51.608;11.462;2023-07-20T06:05:24;16.10;99.90
49042;DHT22;34859;51.608;11.462;2023-07-20T06:07:50;16.10;99.90
49042;DHT22;34859;51.608;11.462;2023-07-20T06:10:17;16.20;99.90
49042;DHT22;34859;51.608;11.462;2023-07-20T06:12:43;16.20;99.90
49042;DHT22;34859;51.608;11.462;2023-07-20T06:15:24;16.20;99.90
49042;DHT22;34859;51.608;11.462;2023-07-20T06:17:51;16.20;99.90
49042;DHT22;34859;51.608;11.462;2023-07-20T06:20:17;16.30;99.90
49042;DHT22;34859;51.608;11.462;2023-07-20T06:22:43;16.30;99.90
49042;DHT22;34859;51.608;11.462;2023-07-20T06:25:09;16.30;99.90
49042;DHT22;34859;51.608;11.462;2023-07-20T06:27:37;16.40;99.90
49042;DHT22;34859;51.608;11.462;2023-07-20T06:30:02;16.30;99.90
49042;DHT22;34859;51.608;11.462;2023-07-20T06:32:28;16.40;99.90
49042;DHT22;34859;51.608;11.462;2023-07-20T06:34:54;16.40;99.90
49042;DHT22;34859;51.608;11.462;2023-07-20T06:37:19;16.50;99.90
49042;DHT22;34859;51.608;11.462;2023-07-20T06:39:47;16.50;99.90
49042;DHT22;34859;51.608;11.462;2023-07-20T06:42:12;16.50;99.90
49042;DHT22;34859;51.608;11.462;2023-07-20T06:44:39;16.60;99.90
49042;DHT22;34859;51.608;11.462;2023-07-20T06:47:04;16.60;99.90
49042;DHT22;34859;51.608;11.462;2023-07-20T06:49:30;16.60;99.90
49042;DHT22;34859;51.608;11.462;2023-07-20T06:51:57;16.70;99.90
49042;DHT22;34859;51.608;11.462;2023-07-20T06:54:22;16.70;99.90
49042;DHT22;34859;51.608;11.462;2023-07-20T06:56:50;16.60;99.90
49042;DHT22;34859;51.608;11.462;2023-07-20T06:59:17;16.70;99.90
49042;DHT22;34859;51.608;11.462;2023-07-20T07:01:42;16.60;99.90
49042;DHT22;34859;51.608;11.462;2023-07-20T07:04:08;16.50;99.90
49042;DHT22;34859;51.608;11.462;2023-07-20T07:06:34;16.50;99.90
49042;DHT22;34859;51.608;11.462;2023-07-20T07:09:00;16.60;99.90
49042;DHT22;34859;51.608;11.462;2023-07-20T07:11:28;16.60;99.90
49042;DHT22;34859;51.608;11.462;2023-07-20T07:13:53;16.80;99.90
49042;DHT22;34859;51.608;11.462;2023-07-20T07:16:19;16.60;99.90
49042;DHT22;34859;51.608;11.462;2023-07-20T07:18:45;16.70;99.90
49042;DHT22;34859;51.608;11.462;2023-07-20T07:21:11;16.80;99.90
49042;DHT22;34859;51.608;11.462;2023-07-20T07:23:40;16.90;99.90
49042;DHT22;34859;51.608;11.462;2023-07-20T07:26:08;16.90;99.90
49042;DHT22;34859;51.608;11.462;2023-07-20T07:28:34;17.00;99.90
49042;DHT22;34859;51.608;11.462;2023-07-20T07:31:00;17.20;99.90
49042;DHT22;34859;51.608;11.462;2023-07-20T07:33:27;17.30;99.90
49042;DHT22;34859;51.608;11.462;2023-07-20T07:35:53;17.30;99.90
49042;DHT22;34859;51.608;11.462;2023-07-20T07:38:19;17.20;99.90
49042;DHT22;34859;51.608;11.462;2023-07-20T07:40:45;17.30;99.90
49042;DHT22;34859;51.608;11.462;2023-07-20T07:43:29;17.30;99.90
49042;DHT22;34859;51.608;11.462;2023-07-20T07:46:13;17.20;99.90
49042;DHT22;34859;51.608;11.462;2023-07-20T07:48:39;17.20;99.90
49042;DHT22;34859;51.608;11.462;2023-07-20T07:51:07;17.30;99.90
49042;DHT22;34859;51.608;11.462;2023-07-20T07:53:32;17.30;99.90
49042;DHT22;34859;51.608;11.462;2023-07-20T07:55:58;17.30;99.90
49042;DHT22;34859;51.608;11.462;2023-07-20T07:58:24;17.10;99.90
49042;DHT22;34859;51.608;11.462;2023-07-20T08:00:49;17.10;99.90
49042;DHT22;34859;51.608;11.462;2023-07-20T08:03:20;17.00;99.90
49042;DHT22;34859;51.608;11.462;2023-07-20T08:05:47;16.90;99.90
49042;DHT22;34859;51.608;11.462;2023-07-20T08:08:17;16.90;99.90
49042;DHT22;34859;51.608;11.462;2023-07-20T08:10:42;16.90;99.90
49042;DHT22;34859;51.608;11.462;2023-07-20T08:13:08;16.90;99.90
49042;DHT22;34859;51.608;11.462;2023-07-20T08:15:34;16.90;99.90
49042;DHT22;34859;51.608;11.462;2023-07-20T08:18:00;16.80;99.90
49042;DHT22;34859;51.608;11.462;2023-07-20T08:20:30;16.80;99.90
49042;DHT22;34859;51.608;11.462;2023-07-20T08:22:57;16.70;99.90
49042;DHT22;34859;51.608;11.462;2023-07-20T08:25:25;16.70;99.90
49042;DHT22;34859;51.608;11.462;2023-07-20T08:27:51;16.50;99.90
49042;DHT22;34859;51.608;11.462;2023-07-20T08:30:17;16.50;99.90
49042;DHT22;34859;51.608;11.462;2023-07-20T08:32:43;16.40;99.90
49042;DHT22;34859;51.608;11.462;2023-07-20T08:35:08;16.30;99.90
49042;DHT22;34859;51.608;11.462;2023-07-20T08:37:34;16.20;99.90
49042;DHT22;34859;51.608;11.462;2023-07-20T08:40:00;15.90;99.90
49042;DHT22;34859;51.608;11.462;2023-07-20T08:42:27;15.70;99.90
49042;DHT22;34859;51.608;11.462;2023-07-20T08:44:54;15.40;99.90
49042;DHT22;34859;51.608;11.462;2023-07-20T08:47:20;15.20;99.90
49042;DHT22;34859;51.608;11.462;2023-07-20T08:49:48;15.10;99.90
49042;DHT22;34859;51.608;11.462;2023-07-20T08:52:34;15.10;99.90
49042;DHT22;34859;51.608;11.462;2023-07-20T08:55:00;15.10;99.90
49042;DHT22;34859;51.608;11.462;2023-07-20T08:57:29;15.20;99.90
49042;DHT22;34859;51.608;11.462;2023-07-20T08:59:57;15.20;99.90
49042;DHT22;34859;51.608;11.462;2023-07-20T09:02:23;15.30;99.90
49042;DHT22;34859;51.608;11.462;2023-07-20T09:04:50;15.40;99.90
49042;DHT22;34859;51.608;11.462;2023-07-20T09:07:17;15.50;99.90
49042;DHT22;34859;51.608;11.462;2023-07-20T09:09:43;15.60;99.90
49042;DHT22;34859;51.608;11.462;2023-07-20T09:12:13;15.70;99.90
49042;DHT22;34859;51.608;11.462;2023-07-20T09:14:38;15.90;99.90
49042;DHT22;34859;51.608;11.462;2023-07-20T09:17:04;16.20;99.90
49042;DHT22;34859;51.608;11.462;2023-07-20T09:19:30;16.30;99.90
49042;DHT22;34859;51.608;11.462;2023-07-20T09:21:57;16.40;99.90
49042;DHT22;34859;51.608;11.462;2023-07-20T09:24:22;16.40;99.90
49042;DHT22;34859;51.608;11.462;2023-07-20T09:26:49;16.40;99.90
49042;DHT22;34859;51.608;11.462;2023-07-20T09:29:20;16.50;99.90
49042;DHT22;34859;51.608;11.462;2023-07-20T09:31:59;16.50;99.90
49042;DHT22;34859;51.608;11.462;2023-07-20T09:34:28;16.60;99.90
49042;DHT22;34859;51.608;11.462;2023-07-20T09:36:55;16.50;99.90
49042;DHT22;34859;51.608;11.462;2023-07-20T09:39:21;16.40;99.90
49042;DHT22;34859;51.608;11.462;2023-07-20T09:41:47;16.60;99.90
49042;DHT22;34859;51.608;11.462;2023-07-20T09:44:16;16.60;99.90
49042;DHT22;34859;51.608;11.462;2023-07-20T09:46:49;16.80;99.90
49042;DHT22;34859;51.608;11.462;2023-07-20T09:49:15;16.90;99.90
49042;DHT22;34859;51.608;11.462;2023-07-20T09:51:42;17.00;99.90
49042;DHT22;34859;51.608;11.462;2023-07-20T09:54:08;17.00;99.90
49042;DHT22;34859;51.608;11.462;2023-07-20T09:56:34;17.00;99.90
49042;DHT22;34859;51.608;11.462;2023-07-20T09:59:00;17.00;99.90
49042;DHT22;34859;51.608;11.462;2023-07-20T10:01:27;17.00;99.90
49042;DHT22;34859;51.608;11.462;2023-07-20T10:03:54;16.80;99.90
49042;DHT22;34859;51.608;11.462;2023-07-20T10:06:23;16.70;99.90
49042;DHT22;34859;51.608;11.462;2023-07-20T10:08:51;16.70;99.90
49042;DHT22;34859;51.608;11.462;2023-07-20T10:11:18;16.80;99.90
49042;DHT22;34859;51.608;11.462;2023-07-20T10:13:44;17.00;99.90
49042;DHT22;34859;51.608;11.462;2023-07-20T10:16:14;16.90;99.90
49042;DHT22;34859;51.608;11.462;2023-07-20T10:19:03;16.80;99.90
49042;DHT22;34859;51.608;11.462;2023-07-20T10:21:27;16.70;99.90
49042;DHT22;34859;51.608;11.462;2023-07-20T10:23:55;16.70;99.90
49042;DHT22;34859;51.608;11.462;2023-07-20T10:26:21;16.80;99.90
49042;DHT22;34859;51.608;11.462;2023-07-20T10:28:47;16.90;99.90
49042;DHT22;34859;51.608;11.462;2023-07-20T10:31:12;17.10;99.90
49042;DHT22;34859;51.608;11.462;2023-07-20T10:33:38;17.30;99.90
49042;DHT22;34859;51.608;11.462;2023-07-20T10:36:04;17.40;99.90
49042;DHT22;34859;51.608;11.462;2023-07-20T10:43:57;17.50;99.90
49042;DHT22;34859;51.608;11.462;2023-07-20T10:49:06;17.40;99.90
49042;DHT22;34859;51.608;11.462;2023-07-20T10:52:17;17.50;99.90
49042;DHT22;34859;51.608;11.462;2023-07-20T10:56:49;17.30;99.90
49042;DHT22;34859;51.608;11.462;2023-07-20T10:59:18;17.20;99.90
49042;DHT22;34859;51.608;11.462;2023-07-20T11:01:46;17.10;99.90
49042;DHT22;34859;51.608;11.462;2023-07-20T11:04:12;17.10;99.90
49042;DHT22;34859;51.608;11.462;2023-07-20T11:06:41;17.00;99.90
49042;DHT22;34859;51.608;11.462;2023-07-20T11:09:09;17.00;99.90
49042;DHT22;34859;51.608;11.462;2023-07-20T11:11:42;17.00;99.90
49042;DHT22;34859;51.608;11.462;2023-07-20T11:16:46;17.10;99.90
49042;DHT22;34859;51.608;11.462;2023-07-20T11:19:23;17.20;99.90
49042;DHT22;34859;51.608;11.462;2023-07-20T11:21:55;17.30;99.90
49042;DHT22;34859;51.608;11.462;2023-07-20T11:24:21;17.70;99.90
49042;DHT22;34859;51.608;11.462;2023-07-20T11:29:13;17.90;99.90
49042;DHT22;34859;51.608;11.462;2023-07-20T11:31:39;18.00;99.90
49042;DHT22;34859;51.608;11.462;2023-07-20T11:34:14;17.90;99.90
49042;DHT22;34859;51.608;11.462;2023-07-20T11:36:40;18.00;99.90
49042;DHT22;34859;51.608;11.462;2023-07-20T11:39:10;18.20;99.90
49042;DHT22;34859;51.608;11.462;2023-07-20T11:41:37;18.40;99.90
49042;DHT22;34859;51.608;11.462;2023-07-20T11:44:04;18.50;99.90
49042;DHT22;34859;51.608;11.462;2023-07-20T11:46:53;18.70;99.90
49042;DHT22;34859;51.608;11.462;2023-07-20T11:49:44;18.70;99.90
49042;DHT22;34859;51.608;11.462;2023-07-20T11:52:34;18.70;99.90
49042;DHT22;34859;51.608;11.462;2023-07-20T11:55:20;18.90;99.90
49042;DHT22;34859;51.608;11.462;2023-07-20T11:58:06;19.10;99.90
49042;DHT22;34859;51.608;11.462;2023-07-20T12:00:32;19.20;99.90
49042;DHT22;34859;51.608;11.462;2023-07-20T12:02:58;19.30;99.90
49042;DHT22;34859;51.608;11.462;2023-07-20T12:05:24;19.20;99.90
49042;DHT22;34859;51.608;11.462;2023-07-20T12:07:54;19.00;99.90
49042;DHT22;34859;51.608;11.462;2023-07-20T12:10:26;19.10;99.90
49042;DHT22;34859;51.608;11.462;2023-07-20T12:12:53;19.10;99.90
49042;DHT22;34859;51.608;11.462;2023-07-20T12:17:45;19.40;99.90
49042;DHT22;34859;51.608;11.462;2023-07-20T12:20:11;19.20;99.90
49042;DHT22;34859;51.608;11.462;2023-07-20T12:22:40;19.10;99.90
49042;DHT22;34859;51.608;11.462;2023-07-20T12:25:08;19.10;99.90
49042;DHT22;34859;51.608;11.462;2023-07-20T12:27:37;19.10;99.90
49042;DHT22;34859;51.608;11.462;2023-07-20T12:30:09;19.30;99.90
49042;DHT22;34859;51.608;11.462;2023-07-20T12:32:37;19.60;99.90
49042;DHT22;34859;51.608;11.462;2023-07-20T12:35:02;19.80;99.90
49042;DHT22;34859;51.608;11.462;2023-07-20T12:37:28;19.90;99.90
49042;DHT22;34859;51.608;11.462;2023-07-20T12:40:13;19.90;99.90
49042;DHT22;34859;51.608;11.462;2023-07-20T12:42:39;19.90;99.90
49042;DHT22;34859;51.608;11.462;2023-07-20T12:45:05;19.90;99.90
49042;DHT22;34859;51.608;11.462;2023-07-20T12:47:30;20.10;99.90
49042;DHT22;34859;51.608;11.462;2023-07-20T12:49:57;20.10;99.90
49042;DHT22;34859;51.608;11.462;2023-07-20T12:52:22;20.20;99.90
49042;DHT22;34859;51.608;11.462;2023-07-20T12:54:48;20.40;99.90
49042;DHT22;34859;51.608;11.462;2023-07-20T12:57:14;20.40;99.90
49042;DHT22;34859;51.608;11.462;2023-07-20T12:59:39;20.50;99.90
49042;DHT22;34859;51.608;11.462;2023-07-20T13:02:07;20.50;99.90
49042;DHT22;34859;51.608;11.462;2023-07-20T13:04:32;20.50;99.90
49042;DHT22;34859;51.608;11.462;2023-07-20T13:06:58;20.50;99.90
49042;DHT22;34859;51.608;11.462;2023-07-20T13:09:25;20.50;99.90
49042;DHT22;34859;51.608;11.462;2023-07-20T13:11:51;20.70;99.90
49042;DHT22;34859;51.608;11.462;2023-07-20T13:14:19;20.80;99.90
49042;DHT22;34859;51.608;11.462;2023-07-20T13:16:47;20.80;99.90
49042;DHT22;34859;51.608;11.462;2023-07-20T13:19:12;20.90;99.90
49042;DHT22;34859;51.608;11.462;2023-07-20T13:21:38;20.90;99.90
49042;DHT22;34859;51.608;11.462;2023-07-20T13:24:23;20.90;99.90
49042;DHT22;34859;51.608;11.462;2023-07-20T13:26:49;20.80;99.90
49042;DHT22;34859;51.608;11.462;2023-07-20T13:29:15;20.90;99.90
49042;DHT22;34859;51.608;11.462;2023-07-20T13:31:40;21.00;99.90
49042;DHT22;34859;51.608;11.462;2023-07-20T13:34:07;21.00;99.90
49042;DHT22;34859;51.608;11.462;2023-07-20T13:36:32;21.00;99.90
49042;DHT22;34859;51.608;11.462;2023-07-20T13:38:58;21.10;99.90
49042;DHT22;34859;51.608;11.462;2023-07-20T13:41:42;21.20;99.90
49042;DHT22;34859;51.608;11.462;2023-07-20T13:44:08;21.30;99.90
49042;DHT22;34859;51.608;11.462;2023-07-20T13:46:33;21.40;99.90
49042;DHT22;34859;51.608;11.462;2023-07-20T13:48:59;21.60;99.90
49042;DHT22;34859;51.608;11.462;2023-07-20T13:51:25;21.70;99.90
49042;DHT22;34859;51.608;11.462;2023-07-20T13:53:51;21.80;99.90
49042;DHT22;34859;51.608;11.462;2023-07-20T13:56:17;21.80;99.90
49042;DHT22;34859;51.608;11.462;2023-07-20T13:58:43;21.80;99.90
49042;DHT22;34859;51.608;11.462;2023-07-20T14:01:08;21.80;98.40
49042;DHT22;34859;51.608;11.462;2023-07-20T14:03:34;21.80;99.50
49042;DHT22;34859;51.608;11.462;2023-07-20T14:06:00;21.90;97.90
49042;DHT22;34859;51.608;11.462;2023-07-20T14:08:27;21.80;98.50
49042;DHT22;34859;51.608;11.462;2023-07-20T14:10:55;21.70;95.60
49042;DHT22;34859;51.608;11.462;2023-07-20T14:13:21;21.60;98.00
49042;DHT22;34859;51.608;11.462;2023-07-20T14:15:47;21.70;97.50
49042;DHT22;34859;51.608;11.462;2023-07-20T14:18:13;21.70;96.50
49042;DHT22;34859;51.608;11.462;2023-07-20T14:20:39;21.70;97.30
49042;DHT22;34859;51.608;11.462;2023-07-20T14:23:05;21.70;96.00
49042;DHT22;34859;51.608;11.462;2023-07-20T14:25:30;21.70;97.10
49042;DHT22;34859;51.608;11.462;2023-07-20T14:28:01;21.60;95.40
49042;DHT22;34859;51.608;11.462;2023-07-20T14:30:29;21.40;95.80
49042;DHT22;34859;51.608;11.462;2023-07-20T14:32:54;21.30;96.60
49042;DHT22;34859;51.608;11.462;2023-07-20T14:35:20;21.30;95.60
49042;DHT22;34859;51.608;11.462;2023-07-20T14:37:47;21.30;96.30
49042;DHT22;34859;51.608;11.462;2023-07-20T14:40:12;21.50;95.30
49042;DHT22;34859;51.608;11.462;2023-07-20T14:42:38;21.60;96.00
49042;DHT22;34859;51.608;11.462;2023-07-20T14:45:04;21.70;96.00
49042;DHT22;34859;51.608;11.462;2023-07-20T14:47:30;21.90;94.40
49042;DHT22;34859;51.608;11.462;2023-07-20T14:50:01;22.00;93.10
49042;DHT22;34859;51.608;11.462;2023-07-20T14:52:30;21.70;94.00
49042;DHT22;34859;51.608;11.462;2023-07-20T14:54:57;21.50;95.10
49042;DHT22;34859;51.608;11.462;2023-07-20T14:57:22;21.70;95.20
49042;DHT22;34859;51.608;11.462;2023-07-20T14:59:49;21.60;95.30
49042;DHT22;34859;51.608;11.462;2023-07-20T15:02:15;21.40;95.80
49042;DHT22;34859;51.608;11.462;2023-07-20T15:04:47;21.30;96.40
49042;DHT22;34859;51.608;11.462;2023-07-20T15:07:15;21.30;94.70
49042;DHT22;34859;51.608;11.462;2023-07-20T15:09:41;21.40;96.20
49042;DHT22;34859;51.608;11.462;2023-07-20T15:12:07;21.40;96.40
49042;DHT22;34859;51.608;11.462;2023-07-20T15:14:33;21.50;95.90
49042;DHT22;34859;51.608;11.462;2023-07-20T15:16:58;21.70;95.40
49042;DHT22;34859;51.608;11.462;2023-07-20T15:19:24;21.80;96.00
49042;DHT22;34859;51.608;11.462;2023-07-20T15:21:50;21.80;95.20
49042;DHT22;34859;51.608;11.462;2023-07-20T15:24:15;21.60;95.40
49042;DHT22;34859;51.608;11.462;2023-07-20T15:26:41;21.60;96.80
49042;DHT22;34859;51.608;11.462;2023-07-20T15:29:10;21.50;94.60
49042;DHT22;34859;51.608;11.462;2023-07-20T15:31:37;21.60;95.90
49042;DHT22;34859;51.608;11.462;2023-07-20T15:34:03;21.60;95.60
49042;DHT22;34859;51.608;11.462;2023-07-20T15:36:28;21.60;94.90
49042;DHT22;34859;51.608;11.462;2023-07-20T15:38:54;21.50;94.20
49042;DHT22;34859;51.608;11.462;2023-07-20T15:41:20;21.30;95.00
49042;DHT22;34859;51.608;11.462;2023-07-20T15:43:47;21.20;96.80